Time;durP1;ratioP1;P1;durP2;ratioP2;P2;SDS_P1;SDS_P2;PMS_P1;PMS_P2;Temp;Humidity;BMP_temperature;BMP_pressure;BME280_temperature;BME280_humidity;BME280_pressure;Samples;Min_cycle;Max_cycle;Signal;HPM_P1;HPM_P2
2022/05/08 00:02:04;;;;;;;19.63;4.20;;;8.60;99.90;;;;;;5112150;28;20460;-78
2022/05/08 00:04:30;;;;;;;22.20;4.32;;;8.60;99.90;;;;;;5112324;28;20134;-77
2022/05/08 00:06:55;;;;;;;20.38;4.60;;;8.50;99.90;;;;;;5111869;28;20127;-77
2022/05/08 00:09:21;;;;;;;17.42;4.50;;;8.50;99.90;;;;;;5112371;28;20158;-77
2022/05/08 00:11:46;;;;;;;25.98;4.68;;;8.50;99.90;;;;;;5111541;28;20546;-78
2022/05/08 00:14:12;;;;;;;18.42;4.18;;;8.50;99.90;;;;;;5112371;28;20118;-77
2022/05/08 00:16:38;;;;;;;19.80;4.88;;;8.50;99.90;;;;;;5113489;28;20039;-77
2022/05/08 00:19:03;;;;;;;24.33;4.28;;;8.50;99.90;;;;;;5111837;28;20047;-77
2022/05/08 00:21:29;;;;;;;15.80;4.38;;;8.40;99.90;;;;;;5095227;28;20048;-77
2022/05/08 00:23:54;;;;;;;19.77;4.70;;;8.50;99.90;;;;;;5111778;28;20100;-77
2022/05/08 00:26:20;;;;;;;20.80;4.47;;;8.50;99.90;;;;;;5078283;28;20070;-77
2022/05/08 00:28:46;;;;;;;18.52;4.03;;;8.40;99.90;;;;;;5111371;28;20051;-78
2022/05/08 00:31:11;;;;;;;19.65;4.70;;;8.30;99.90;;;;;;5112300;28;20048;-77
2022/05/08 00:33:38;;;;;;;21.08;5.00;;;8.30;99.90;;;;;;5111833;28;20400;-77
2022/05/08 00:36:05;;;;;;;20.38;4.43;;;8.30;99.90;;;;;;5094721;28;20410;-77
2022/05/08 00:38:30;;;;;;;16.75;4.20;;;8.20;99.90;;;;;;5095226;28;20127;-77
2022/05/08 00:40:56;;;;;;;15.60;4.50;;;8.20;99.90;;;;;;5094379;28;20126;-77
2022/05/08 00:43:32;;;;;;;14.43;4.05;;;8.20;99.90;;;;;;5111982;28;20047;-77
2022/05/08 00:46:05;;;;;;;15.50;4.18;;;8.10;99.90;;;;;;5111618;28;20051;-78
2022/05/08 00:48:31;;;;;;;17.38;4.28;;;8.10;99.90;;;;;;5095779;28;20055;-77
2022/05/08 00:50:57;;;;;;;14.40;4.38;;;8.00;99.90;;;;;;5094671;28;20059;-77
2022/05/08 00:53:24;;;;;;;13.18;3.45;;;8.00;99.90;;;;;;5111699;28;20047;-77
2022/05/08 00:55:50;;;;;;;17.25;4.15;;;8.00;99.90;;;;;;5111414;28;20043;-78
2022/05/08 00:58:16;;;;;;;15.20;4.10;;;7.90;99.90;;;;;;5095070;28;20089;-77
2022/05/08 01:00:41;;;;;;;15.10;4.00;;;7.80;99.90;;;;;;5111682;28;20484;-82
2022/05/08 01:03:07;;;;;;;18.52;3.83;;;7.80;99.90;;;;;;5112524;28;20079;-82
2022/05/08 01:05:34;;;;;;;15.07;3.90;;;7.80;99.90;;;;;;5111845;28;20387;-80
2022/05/08 01:08:01;;;;;;;16.73;3.80;;;7.70;99.90;;;;;;5111133;28;20043;-78
2022/05/08 01:10:26;;;;;;;18.98;4.18;;;7.70;99.90;;;;;;5111816;28;20090;-78
2022/05/08 01:12:52;;;;;;;16.02;4.13;;;7.70;99.90;;;;;;5094389;28;20440;-79
2022/05/08 01:15:20;;;;;;;16.25;4.25;;;7.70;99.90;;;;;;5111710;28;20059;-78
2022/05/08 01:17:46;;;;;;;16.90;3.53;;;7.70;99.90;;;;;;5094952;28;20051;-79
2022/05/08 01:20:12;;;;;;;14.23;3.63;;;7.60;99.90;;;;;;5063405;28;20079;-79
2022/05/08 01:22:38;;;;;;;15.55;4.38;;;7.60;99.90;;;;;;5081790;28;20094;-78
2022/05/08 01:25:04;;;;;;;15.95;3.78;;;7.60;99.90;;;;;;5081332;28;20047;-78
2022/05/08 01:27:30;;;;;;;17.42;4.00;;;7.60;99.90;;;;;;5098505;28;20072;-80
2022/05/08 01:29:55;;;;;;;13.38;3.33;;;7.60;99.90;;;;;;5097589;28;20055;-79
2022/05/08 01:32:21;;;;;;;13.25;3.05;;;7.60;99.90;;;;;;5115173;28;20058;-78
2022/05/08 01:34:48;;;;;;;13.77;3.10;;;7.40;99.90;;;;;;5116439;28;20043;-77
2022/05/08 01:37:13;;;;;;;14.73;3.47;;;7.30;99.90;;;;;;5115003;28;20638;-77
2022/05/08 01:39:39;;;;;;;11.25;3.33;;;7.30;99.90;;;;;;5081216;28;20044;-78
2022/05/08 01:42:06;;;;;;;9.15;3.08;;;7.20;99.90;;;;;;5097853;28;20047;-78
2022/05/08 01:44:35;;;;;;;10.25;3.00;;;7.30;99.90;;;;;;5098548;28;20055;-79
2022/05/08 01:49:44;;;;;;;13.75;3.35;;;7.20;99.90;;;;;;5100696;28;20391;-78
2022/05/08 01:52:10;;;;;;;13.15;3.38;;;7.20;99.90;;;;;;5114780;28;20044;-78
2022/05/08 01:54:35;;;;;;;15.45;3.95;;;7.20;99.90;;;;;;5097974;28;20048;-79
2022/05/08 01:57:01;;;;;;;13.45;3.97;;;7.20;99.90;;;;;;5080592;28;20122;-83
2022/05/08 01:59:27;;;;;;;19.15;3.72;;;7.20;99.90;;;;;;5081198;28;20047;-79
2022/05/08 02:01:52;;;;;;;13.55;3.60;;;7.10;99.90;;;;;;5097582;28;20048;-77
2022/05/08 02:04:18;;;;;;;11.90;3.13;;;7.10;99.90;;;;;;5097203;28;20086;-78
2022/05/08 02:06:45;;;;;;;13.65;3.25;;;7.10;99.90;;;;;;5097811;28;20089;-77
2022/05/08 02:09:11;;;;;;;13.05;3.20;;;7.10;99.90;;;;;;5097364;28;20043;-77
2022/05/08 02:11:36;;;;;;;10.30;2.95;;;7.10;99.90;;;;;;5097889;28;20383;-79
2022/05/08 02:14:02;;;;;;;10.80;3.38;;;7.10;99.90;;;;;;5114233;28;20051;-78
2022/05/08 02:16:29;;;;;;;10.07;2.47;;;7.00;99.90;;;;;;5097780;28;20047;-79
2022/05/08 02:18:55;;;;;;;11.15;3.08;;;7.00;99.90;;;;;;5064154;28;20140;-77
2022/05/08 02:21:21;;;;;;;7.15;2.50;;;7.00;99.90;;;;;;5115023;28;20256;-76
2022/05/08 02:23:46;;;;;;;11.68;3.10;;;7.00;99.90;;;;;;5114604;28;20051;-76
2022/05/08 02:26:12;;;;;;;15.07;3.10;;;6.90;99.90;;;;;;5113990;28;20414;-76
2022/05/08 02:28:39;;;;;;;14.23;3.72;;;6.80;99.90;;;;;;5117006;27;20101;-76
2022/05/08 02:31:05;;;;;;;11.07;3.30;;;6.90;99.90;;;;;;5116096;27;20055;-76
2022/05/08 02:33:30;;;;;;;11.95;3.50;;;6.90;99.90;;;;;;5135881;27;20118;-76
2022/05/08 02:35:56;;;;;;;9.73;2.72;;;6.90;99.90;;;;;;5100765;27;20054;-76
2022/05/08 02:38:22;;;;;;;10.48;2.75;;;6.80;99.90;;;;;;5117075;27;20356;-76
2022/05/08 02:40:47;;;;;;;9.98;3.15;;;6.80;99.90;;;;;;5135243;27;20035;-77
2022/05/08 02:43:14;;;;;;;10.52;3.30;;;6.70;99.90;;;;;;5116957;27;20082;-77
2022/05/08 02:45:40;;;;;;;10.65;4.15;;;6.70;99.90;;;;;;5135609;27;20039;-78
2022/05/08 02:48:07;;;;;;;11.60;2.80;;;6.70;99.90;;;;;;5117036;27;20091;-79
2022/05/08 02:50:33;;;;;;;10.95;3.58;;;6.70;99.90;;;;;;5100524;27;20047;-78
2022/05/08 02:52:59;;;;;;;10.25;3.20;;;6.70;99.90;;;;;;5117333;27;20097;-79
2022/05/08 03:00:53;;;;;;;5.70;2.35;;;6.80;99.90;;;;;;5102516;27;20054;-79
2022/05/08 03:03:18;;;;;;;12.50;3.30;;;6.60;99.90;;;;;;5116005;27;20125;-77
2022/05/08 03:05:45;;;;;;;10.13;3.35;;;6.60;99.90;;;;;;5099976;27;20369;-77
2022/05/08 03:08:11;;;;;;;11.18;3.42;;;6.50;99.90;;;;;;5099509;27;20104;-78
2022/05/08 03:13:21;;;;;;;8.32;2.70;;;6.50;99.90;;;;;;5104843;27;20116;-78
2022/05/08 03:15:47;;;;;;;9.57;2.80;;;6.50;99.90;;;;;;5099867;27;20043;-77
2022/05/08 03:18:14;;;;;;;8.70;2.15;;;6.50;99.90;;;;;;5115925;27;20482;-78
2022/05/08 03:20:40;;;;;;;8.95;2.80;;;6.40;99.90;;;;;;5082987;27;20046;-78
2022/05/08 03:23:06;;;;;;;7.65;2.63;;;6.50;99.90;;;;;;5099743;27;20051;-77
2022/05/08 03:25:31;;;;;;;7.82;2.50;;;6.40;99.90;;;;;;5116267;27;20057;-78
2022/05/08 03:27:57;;;;;;;8.38;3.15;;;6.40;99.90;;;;;;5116668;27;20399;-77
2022/05/08 03:30:25;;;;;;;9.13;2.60;;;6.30;99.90;;;;;;5098868;27;20376;-77
2022/05/08 03:32:51;;;;;;;6.75;2.70;;;6.40;99.90;;;;;;5100010;27;20055;-77
2022/05/08 03:35:16;;;;;;;6.97;3.08;;;6.40;99.90;;;;;;5116108;27;20494;-78
2022/05/08 03:37:42;;;;;;;5.00;2.05;;;6.30;99.90;;;;;;5082692;27;20051;-77
2022/05/08 03:40:08;;;;;;;7.90;2.20;;;6.20;99.90;;;;;;5099289;27;20047;-77
2022/05/08 03:42:34;;;;;;;6.20;2.40;;;6.20;99.90;;;;;;5098638;27;20047;-77
2022/05/08 03:44:59;;;;;;;6.75;2.15;;;6.20;99.90;;;;;;5099346;27;20118;-77
2022/05/08 03:47:25;;;;;;;5.82;1.90;;;6.20;99.90;;;;;;5133954;27;20039;-78
2022/05/08 03:49:51;;;;;;;5.35;1.92;;;6.10;99.90;;;;;;5116284;27;20054;-77
2022/05/08 03:52:16;;;;;;;5.03;2.30;;;6.20;99.90;;;;;;5115650;27;20112;-78
2022/05/08 03:54:42;;;;;;;6.22;1.92;;;6.20;99.90;;;;;;5116238;27;20043;-77
2022/05/08 03:57:07;;;;;;;4.63;2.10;;;6.10;99.90;;;;;;5098923;27;20087;-77
2022/05/08 03:59:33;;;;;;;4.85;1.83;;;6.10;99.90;;;;;;5115601;27;20043;-78
2022/05/08 04:01:59;;;;;;;7.47;2.85;;;6.10;99.90;;;;;;5116138;27;20051;-78
2022/05/08 04:04:24;;;;;;;5.53;1.98;;;6.10;99.90;;;;;;5065138;27;20435;-77
2022/05/08 04:06:50;;;;;;;7.53;2.30;;;6.20;99.90;;;;;;5116054;27;20043;-77
2022/05/08 04:09:18;;;;;;;7.45;2.75;;;6.10;99.90;;;;;;5134020;27;20039;-77
2022/05/08 04:11:44;;;;;;;7.70;2.50;;;6.10;99.90;;;;;;5134072;27;20039;-77
2022/05/08 04:14:09;;;;;;;6.85;2.58;;;6.10;99.90;;;;;;5082010;27;20380;-77
2022/05/08 04:16:35;;;;;;;7.97;2.65;;;6.10;99.90;;;;;;5098466;27;20409;-77
2022/05/08 04:19:01;;;;;;;6.75;2.40;;;6.10;99.90;;;;;;5115475;27;20047;-77
2022/05/08 04:21:27;;;;;;;7.60;2.80;;;6.10;99.90;;;;;;5081191;27;20131;-77
2022/05/08 04:26:37;;;;;;;7.13;2.60;;;6.10;99.90;;;;;;5100814;27;20116;-77
2022/05/08 04:29:02;;;;;;;7.35;2.70;;;6.10;99.90;;;;;;5077939;28;20052;-77
2022/05/08 04:31:29;;;;;;;10.27;2.80;;;6.10;99.90;;;;;;5111792;28;20051;-77
2022/05/08 04:33:54;;;;;;;9.68;3.28;;;6.20;99.90;;;;;;5094954;28;20054;-78
2022/05/08 04:36:20;;;;;;;11.93;3.80;;;6.20;99.90;;;;;;5111958;28;20044;-84
2022/05/08 04:38:46;;;;;;;7.85;3.10;;;6.30;99.90;;;;;;5095126;28;20043;-78
2022/05/08 04:41:11;;;;;;;9.85;2.90;;;6.20;99.90;;;;;;5094978;28;20075;-78
2022/05/08 04:43:37;;;;;;;11.65;2.90;;;6.30;99.90;;;;;;5111653;28;20487;-78
2022/05/08 04:46:03;;;;;;;5.32;2.70;;;6.30;99.90;;;;;;5111965;28;20127;-77
2022/05/08 04:48:28;;;;;;;10.50;3.30;;;6.30;99.90;;;;;;5111501;28;20054;-78
2022/05/08 04:50:54;;;;;;;10.48;3.50;;;6.40;99.90;;;;;;5111857;28;20356;-78
2022/05/08 04:53:20;;;;;;;9.18;3.30;;;6.40;99.90;;;;;;5095021;28;20104;-81
2022/05/08 04:55:45;;;;;;;10.70;3.55;;;6.40;99.90;;;;;;5098848;28;20388;-81
2022/05/08 04:58:11;;;;;;;10.75;3.13;;;6.50;99.90;;;;;;5082305;28;20135;-79
2022/05/08 05:00:37;;;;;;;15.68;4.00;;;6.50;99.90;;;;;;5098321;28;20055;-79
2022/05/08 05:03:03;;;;;;;11.38;3.50;;;6.60;99.90;;;;;;5082436;28;20055;-80
2022/05/08 05:05:28;;;;;;;11.48;3.28;;;6.60;99.90;;;;;;5115493;28;20043;-79
2022/05/08 05:07:54;;;;;;;8.25;4.18;;;6.60;99.90;;;;;;5082195;28;20058;-80
2022/05/08 05:10:20;;;;;;;12.57;3.67;;;6.60;99.90;;;;;;5099147;28;20043;-79
2022/05/08 05:12:45;;;;;;;9.90;3.15;;;6.70;99.90;;;;;;5115631;28;20177;-79
2022/05/08 05:15:11;;;;;;;9.00;3.42;;;6.70;99.90;;;;;;5082085;28;20483;-79
2022/05/08 05:17:37;;;;;;;11.07;3.83;;;6.70;99.90;;;;;;5081554;28;20040;-80
2022/05/08 05:20:03;;;;;;;13.13;4.50;;;6.80;99.90;;;;;;5115874;28;20043;-80
2022/05/08 05:22:31;;;;;;;10.32;3.78;;;6.90;99.90;;;;;;5115219;28;20082;-80
2022/05/08 05:24:57;;;;;;;9.02;3.80;;;6.90;99.90;;;;;;5065360;28;20047;-79
2022/05/08 05:27:23;;;;;;;11.65;4.30;;;7.00;99.90;;;;;;5081900;28;20043;-79
2022/05/08 05:29:49;;;;;;;12.93;4.53;;;6.90;99.90;;;;;;5097803;28;20139;-79
2022/05/08 05:32:14;;;;;;;13.40;4.32;;;7.00;99.90;;;;;;5098656;28;20122;-79
2022/05/08 05:34:40;;;;;;;12.38;4.68;;;7.00;99.90;;;;;;5098210;28;20044;-80
2022/05/08 05:37:06;;;;;;;10.10;4.30;;;7.10;99.90;;;;;;5098493;28;20047;-79
2022/05/08 05:39:32;;;;;;;8.88;4.10;;;7.10;99.90;;;;;;5097952;28;20093;-80
2022/05/08 05:41:58;;;;;;;10.52;4.20;;;7.10;99.90;;;;;;5098357;28;20047;-80
2022/05/08 05:44:23;;;;;;;9.02;4.38;;;7.30;99.90;;;;;;5081659;28;20052;-79
2022/05/08 05:49:33;;;;;;;12.45;4.25;;;7.50;99.90;;;;;;5100445;28;20395;-80
2022/05/08 05:51:59;;;;;;;15.70;4.15;;;7.60;99.90;;;;;;5115101;28;20043;-80
2022/05/08 05:54:24;;;;;;;14.68;4.35;;;7.80;99.90;;;;;;5081240;28;20089;-80
2022/05/08 05:56:50;;;;;;;13.40;3.55;;;7.90;99.90;;;;;;5064071;28;20052;-79
2022/05/08 05:59:16;;;;;;;10.02;3.60;;;7.90;99.90;;;;;;5081108;28;20081;-79
2022/05/08 06:01:42;;;;;;;9.02;3.00;;;8.00;99.90;;;;;;5097687;28;20178;-80
2022/05/08 06:04:08;;;;;;;7.18;3.13;;;8.10;99.90;;;;;;5114686;28;20498;-80
2022/05/08 06:06:33;;;;;;;11.85;3.35;;;8.30;99.90;;;;;;5080355;28;20073;-83
2022/05/08 06:08:59;;;;;;;8.13;3.00;;;8.40;99.90;;;;;;5097839;28;20039;-79
2022/05/08 06:11:25;;;;;;;10.13;3.17;;;8.60;99.90;;;;;;5114583;28;20043;-80
2022/05/08 06:13:50;;;;;;;13.60;4.07;;;8.70;99.90;;;;;;5097069;28;20612;-80
2022/05/08 06:16:16;;;;;;;10.45;3.10;;;8.90;99.90;;;;;;5097664;28;20043;-79
2022/05/08 06:18:43;;;;;;;10.75;3.28;;;8.90;99.90;;;;;;5114238;28;20498;-80
2022/05/08 06:21:09;;;;;;;10.93;3.40;;;9.10;99.90;;;;;;5097568;28;20061;-78
2022/05/08 06:23:34;;;;;;;7.97;2.70;;;9.20;99.90;;;;;;5114377;28;20035;-79
2022/05/08 06:26:00;;;;;;;11.25;3.03;;;9.30;99.90;;;;;;5115019;28;20043;-79
2022/05/08 06:28:25;;;;;;;8.27;2.70;;;9.50;99.90;;;;;;5097557;28;20498;-79
2022/05/08 06:30:51;;;;;;;12.65;2.42;;;9.60;99.90;;;;;;5096353;28;20078;-79
2022/05/08 06:33:18;;;;;;;12.10;2.70;;;9.70;99.90;;;;;;5097385;28;20052;-78
2022/05/08 06:35:43;;;;;;;10.02;2.08;;;9.80;99.90;;;;;;5096975;28;20055;-78
2022/05/08 06:38:12;;;;;;;6.70;2.15;;;9.80;99.90;;;;;;5080458;28;20047;-78
2022/05/08 06:40:38;;;;;;;11.15;2.40;;;9.90;99.90;;;;;;5080432;28;20072;-88
2022/05/08 06:43:04;;;;;;;9.43;2.08;;;10.00;99.90;;;;;;5063658;28;20130;-80
2022/05/08 06:45:30;;;;;;;13.02;2.67;;;10.10;99.90;;;;;;5097225;28;20126;-78
2022/05/08 06:47:56;;;;;;;8.18;1.90;;;10.20;99.40;;;;;;5096722;28;20051;-80
2022/05/08 06:50:22;;;;;;;13.93;2.80;;;10.30;99.00;;;;;;5113790;28;20043;-79
2022/05/08 06:52:47;;;;;;;6.72;2.42;;;10.30;99.20;;;;;;5113507;28;20082;-78
2022/05/08 06:55:13;;;;;;;10.52;1.98;;;10.40;99.10;;;;;;5097028;28;20115;-78
2022/05/08 06:57:39;;;;;;;6.55;1.55;;;10.40;97.80;;;;;;5113629;28;20050;-77
2022/05/08 07:02:51;;;;;;;12.80;2.33;;;10.50;96.60;;;;;;5084523;28;20052;-78
2022/05/08 07:05:17;;;;;;;8.02;2.30;;;10.60;96.60;;;;;;5113544;28;20368;-78
2022/05/08 07:07:42;;;;;;;10.60;1.95;;;10.60;95.50;;;;;;5113326;28;20036;-84
2022/05/08 07:10:08;;;;;;;8.90;1.80;;;10.60;95.50;;;;;;5114582;28;20524;-78
2022/05/08 07:12:36;;;;;;;9.27;2.13;;;10.70;95.40;;;;;;5096681;28;20088;-78
2022/05/08 07:15:03;;;;;;;9.25;1.67;;;10.80;95.30;;;;;;5096370;28;20420;-79
2022/05/08 07:17:29;;;;;;;5.10;1.58;;;10.80;94.60;;;;;;5112681;27;20090;-78
2022/05/08 07:19:55;;;;;;;11.20;2.13;;;10.70;94.10;;;;;;5079293;28;20050;-78
2022/05/08 07:22:22;;;;;;;5.15;1.55;;;10.80;93.80;;;;;;5079919;28;20040;-78
2022/05/08 07:24:47;;;;;;;7.28;2.00;;;10.80;94.20;;;;;;5113118;28;20055;-79
2022/05/08 07:27:13;;;;;;;8.45;1.70;;;10.90;93.90;;;;;;5096539;28;20387;-78
2022/05/08 07:29:42;;;;;;;14.10;1.80;;;11.00;94.20;;;;;;5096321;28;20454;-78
2022/05/08 07:32:08;;;;;;;9.05;1.65;;;11.00;93.30;;;;;;5112889;28;20059;-78
2022/05/08 07:37:18;;;;;;;11.95;2.10;;;11.00;93.20;;;;;;5098975;28;20039;-78
2022/05/08 07:39:44;;;;;;;10.88;1.80;;;10.90;93.30;;;;;;5095818;28;20543;-78
2022/05/08 07:42:09;;;;;;;10.60;2.13;;;10.80;93.00;;;;;;5062102;28;20097;-77
2022/05/08 07:44:35;;;;;;;11.50;2.47;;;10.70;93.00;;;;;;5112943;28;20051;-77
2022/05/08 07:47:01;;;;;;;7.40;1.80;;;10.60;93.20;;;;;;5112230;28;20055;-79
2022/05/08 07:49:27;;;;;;;11.80;1.80;;;10.60;93.40;;;;;;5114061;28;20046;-77
2022/05/08 07:51:52;;;;;;;7.72;1.55;;;10.60;93.60;;;;;;5078537;28;20421;-79
2022/05/08 07:54:18;;;;;;;7.55;1.90;;;10.60;93.50;;;;;;5112792;28;20058;-78
2022/05/08 07:56:44;;;;;;;9.00;1.70;;;10.50;93.50;;;;;;5112500;28;20044;-78
2022/05/08 07:59:10;;;;;;;10.93;1.85;;;10.50;93.10;;;;;;5113319;28;20313;-78
2022/05/08 08:01:35;;;;;;;6.00;1.70;;;10.50;93.30;;;;;;5095444;28;20127;-77
2022/05/08 08:04:02;;;;;;;9.40;1.70;;;10.50;93.20;;;;;;5095406;28;20369;-77
2022/05/08 08:06:28;;;;;;;8.57;2.20;;;10.50;93.10;;;;;;5113805;28;20051;-77
2022/05/08 08:08:54;;;;;;;10.10;1.80;;;10.50;93.20;;;;;;5078482;28;20052;-77
2022/05/08 08:11:20;;;;;;;8.68;1.83;;;10.60;93.10;;;;;;5113459;28;20102;-77
2022/05/08 08:13:46;;;;;;;7.30;1.65;;;10.60;93.00;;;;;;5113452;28;20047;-77
2022/05/08 08:16:12;;;;;;;10.68;2.22;;;10.70;92.90;;;;;;5095099;28;20823;-78
2022/05/08 08:18:38;;;;;;;9.50;1.73;;;10.70;92.20;;;;;;5095333;28;20040;-77
2022/05/08 08:21:04;;;;;;;8.00;1.80;;;10.70;91.80;;;;;;5111802;28;20043;-77
2022/05/08 08:23:30;;;;;;;8.50;1.83;;;10.80;91.90;;;;;;5095676;28;20384;-77
2022/05/08 08:25:56;;;;;;;10.70;1.73;;;10.90;92.20;;;;;;5111934;28;20054;-77
2022/05/08 08:28:21;;;;;;;8.15;1.90;;;10.90;92.10;;;;;;5112067;28;20054;-77
2022/05/08 08:30:47;;;;;;;8.63;1.75;;;11.00;92.30;;;;;;5095182;28;20056;-77
2022/05/08 08:33:13;;;;;;;11.05;2.30;;;11.10;92.10;;;;;;5094953;28;20047;-76
2022/05/08 08:35:39;;;;;;;8.10;1.88;;;11.10;91.40;;;;;;5112081;28;20134;-80
2022/05/08 08:38:06;;;;;;;9.73;1.90;;;11.10;91.60;;;;;;5094723;28;20052;-76
2022/05/08 08:40:32;;;;;;;10.07;2.00;;;11.10;91.50;;;;;;5095028;28;20123;-77
2022/05/08 08:42:59;;;;;;;9.65;2.05;;;11.20;91.30;;;;;;5094779;28;20044;-78
2022/05/08 08:48:25;;;;;;;11.18;1.88;;;11.30;91.00;;;;;;5111503;28;20051;-75
2022/05/08 08:50:51;;;;;;;9.93;2.05;;;11.30;90.70;;;;;;5111694;28;20059;-76
2022/05/08 08:53:17;;;;;;;9.75;2.10;;;11.30;90.10;;;;;;5077904;28;20040;-76
2022/05/08 08:55:43;;;;;;;9.50;1.88;;;11.30;90.00;;;;;;5112996;28;20048;-76
2022/05/08 08:58:08;;;;;;;13.88;2.20;;;11.40;89.90;;;;;;5111664;28;20051;-76
2022/05/08 09:00:34;;;;;;;9.48;2.20;;;11.40;89.80;;;;;;5078208;28;20044;-76
2022/05/08 09:03:00;;;;;;;6.35;1.70;;;11.50;89.50;;;;;;5111393;28;20063;-79
2022/05/08 09:05:25;;;;;;;11.57;2.00;;;11.50;89.70;;;;;;5113145;28;20048;-76
2022/05/08 09:07:52;;;;;;;14.82;2.20;;;11.50;90.40;;;;;;5111942;28;20491;-76
2022/05/08 09:10:35;;;;;;;9.88;1.75;;;11.60;89.40;;;;;;5111015;28;20122;-77
2022/05/08 09:13:07;;;;;;;10.40;2.03;;;11.70;86.20;;;;;;5111900;28;20164;-80
2022/05/08 09:15:36;;;;;;;11.07;2.28;;;11.70;86.70;;;;;;5094946;28;20098;-76
2022/05/08 09:18:09;;;;;;;9.95;2.22;;;11.70;87.10;;;;;;5112330;28;20048;-78
2022/05/08 09:20:47;;;;;;;11.63;2.13;;;11.80;87.30;;;;;;5094684;28;20544;-76
2022/05/08 09:23:16;;;;;;;8.30;2.00;;;11.80;85.60;;;;;;5095505;28;20559;-76
2022/05/08 09:25:59;;;;;;;12.38;2.53;;;11.80;86.00;;;;;;5111887;28;20048;-76
2022/05/08 09:28:43;;;;;;;11.68;2.45;;;11.90;85.60;;;;;;5094623;28;20052;-76
2022/05/08 09:31:10;;;;;;;8.38;1.95;;;11.90;85.80;;;;;;5095683;28;20056;-76
2022/05/08 09:33:45;;;;;;;12.40;2.20;;;12.00;87.10;;;;;;5111615;28;20051;-76
2022/05/08 09:36:12;;;;;;;11.50;2.15;;;12.00;86.90;;;;;;5111264;28;20048;-77
2022/05/08 09:38:56;;;;;;;10.35;2.20;;;12.20;82.40;;;;;;5111593;28;20488;-77
2022/05/08 09:41:23;;;;;;;7.32;2.20;;;12.20;81.70;;;;;;5097094;28;20039;-77
2022/05/08 09:43:50;;;;;;;9.55;2.45;;;12.30;83.70;;;;;;5116407;28;20173;-77
2022/05/08 09:46:17;;;;;;;12.52;2.42;;;12.40;83.10;;;;;;5081156;28;20047;-76
2022/05/08 09:48:43;;;;;;;8.45;2.05;;;12.50;83.50;;;;;;5115198;28;20171;-76
2022/05/08 09:51:10;;;;;;;10.82;2.00;;;12.40;83.80;;;;;;5097708;28;20131;-76
2022/05/08 09:53:38;;;;;;;6.78;1.85;;;12.40;82.80;;;;;;5114908;28;20044;-76
2022/05/08 09:56:08;;;;;;;8.25;2.05;;;12.50;83.10;;;;;;5098314;28;20047;-76
2022/05/08 09:58:33;;;;;;;14.88;2.65;;;12.50;83.60;;;;;;5098413;28;20047;-76
2022/05/08 10:00:59;;;;;;;7.65;1.85;;;12.50;82.90;;;;;;5116009;28;20130;-77
2022/05/08 10:03:26;;;;;;;9.38;1.95;;;12.50;82.80;;;;;;5114220;28;20045;-77
2022/05/08 10:05:51;;;;;;;9.23;2.30;;;12.50;82.00;;;;;;5098035;28;20099;-77
2022/05/08 10:08:20;;;;;;;9.05;1.92;;;12.60;82.10;;;;;;5114226;28;20093;-76
2022/05/08 10:13:54;;;;;;;12.15;2.42;;;12.70;82.00;;;;;;5101028;28;20059;-77
2022/05/08 10:16:41;;;;;;;10.32;2.35;;;12.80;82.40;;;;;;5098633;28;20043;-78
2022/05/08 10:19:22;;;;;;;10.93;2.10;;;12.90;77.90;;;;;;5115722;28;20044;-78
2022/05/08 10:21:56;;;;;;;10.45;2.33;;;12.90;81.00;;;;;;5114439;28;20173;-78
2022/05/08 10:24:34;;;;;;;9.70;2.50;;;13.00;80.50;;;;;;5114104;28;20141;-78
2022/05/08 10:27:14;;;;;;;11.05;2.28;;;13.10;76.90;;;;;;5114399;28;20491;-77
2022/05/08 10:29:55;;;;;;;13.25;2.00;;;13.10;77.40;;;;;;5114377;28;20091;-76
2022/05/08 10:32:32;;;;;;;;;;;13.10;78.70;;;;;;5114022;28;20556;-76
2022/05/08 10:35:07;;;;;;;10.20;2.08;;;13.00;75.30;;;;;;5115160;28;20375;-76
2022/05/08 10:37:33;;;;;;;7.57;1.95;;;13.10;79.50;;;;;;5114987;28;20305;-76
2022/05/08 10:39:59;;;;;;;11.50;1.90;;;13.10;79.60;;;;;;5115256;28;20043;-75
2022/05/08 10:42:27;;;;;;;10.43;2.05;;;13.20;79.00;;;;;;5114843;28;20131;-76
2022/05/08 10:44:56;;;;;;;10.18;1.83;;;13.20;76.40;;;;;;5115189;28;20047;-76
2022/05/08 10:47:36;;;;;;;9.95;2.40;;;13.30;77.50;;;;;;5097088;28;20047;-76
2022/05/08 10:50:12;;;;;;;9.75;2.25;;;13.30;75.10;;;;;;5113871;28;20051;-76
2022/05/08 10:52:42;;;;;;;11.23;2.30;;;13.30;76.70;;;;;;5096132;28;20134;-76
2022/05/08 10:55:09;;;;;;;12.60;2.83;;;13.40;76.80;;;;;;5097520;28;20039;-76
2022/05/08 10:57:36;;;;;;;6.47;1.73;;;13.40;76.10;;;;;;5113645;28;20373;-75
2022/05/08 11:00:05;;;;;;;13.10;2.67;;;13.40;75.40;;;;;;5096930;28;20402;-76
2022/05/08 11:02:47;;;;;;;8.25;2.10;;;13.40;75.10;;;;;;5113289;28;20058;-76
2022/05/08 11:05:17;;;;;;;11.25;2.17;;;13.50;72.20;;;;;;5096797;28;20048;-75
2022/05/08 11:07:49;;;;;;;9.20;2.05;;;13.50;75.70;;;;;;5114873;28;20039;-75
2022/05/08 11:10:21;;;;;;;10.07;2.20;;;13.60;73.10;;;;;;5096723;28;20098;-75
2022/05/08 11:13:00;;;;;;;8.70;2.20;;;13.60;73.30;;;;;;5096792;28;20083;-75
2022/05/08 11:15:29;;;;;;;12.25;2.20;;;13.60;70.90;;;;;;5113040;28;20043;-75
2022/05/08 11:18:02;;;;;;;7.93;2.08;;;13.60;71.50;;;;;;5113610;28;20048;-75
2022/05/08 11:20:28;;;;;;;8.82;2.20;;;13.60;71.00;;;;;;5114208;28;20441;-75
2022/05/08 11:22:57;;;;;;;8.25;3.03;;;13.70;70.10;;;;;;5113330;28;20048;-75
2022/05/08 11:25:23;;;;;;;10.00;2.50;;;13.70;69.90;;;;;;5095905;28;20554;-75
2022/05/08 11:27:58;;;;;;;9.90;2.35;;;13.70;72.10;;;;;;5113336;28;20131;-75
2022/05/08 11:30:35;;;;;;;11.18;2.20;;;13.70;71.60;;;;;;5112522;28;20059;-76
2022/05/08 11:36:05;;;;;;;10.32;2.13;;;13.80;72.20;;;;;;5113046;28;20052;-75
2022/05/08 11:38:45;;;;;;;12.52;2.60;;;13.80;71.40;;;;;;5112309;28;20495;-76
2022/05/08 11:41:15;;;;;;;8.35;2.00;;;13.90;69.30;;;;;;5112759;28;20047;-75
2022/05/08 11:43:42;;;;;;;9.95;2.25;;;13.90;71.10;;;;;;5113608;28;20507;-75
2022/05/08 11:46:08;;;;;;;7.40;1.80;;;13.90;69.70;;;;;;5112676;28;20056;-76
2022/05/08 11:48:40;;;;;;;11.23;2.20;;;13.90;71.10;;;;;;5095312;28;20449;-77
2022/05/08 11:51:07;;;;;;;14.00;2.20;;;13.90;66.60;;;;;;5113939;28;20036;-75
2022/05/08 11:53:45;;;;;;;6.35;2.13;;;13.90;67.60;;;;;;5113485;28;20079;-76
2022/05/08 11:56:32;;;;;;;10.60;2.15;;;13.90;68.50;;;;;;5096375;28;20046;-76
2022/05/08 11:59:02;;;;;;;12.52;2.17;;;13.90;67.60;;;;;;5112914;28;20055;-75
2022/05/08 12:01:34;;;;;;;10.80;1.98;;;13.90;69.50;;;;;;5095781;28;20530;-76
2022/05/08 12:04:32;;;;;;;10.10;1.92;;;14.00;69.60;;;;;;5095732;28;20043;-75
2022/05/08 12:06:59;;;;;;;9.45;1.90;;;14.00;68.40;;;;;;5112227;28;20549;-75
2022/05/08 12:09:26;;;;;;;8.13;2.47;;;14.00;69.30;;;;;;5113648;28;20101;-75
2022/05/08 12:11:51;;;;;;;9.60;2.10;;;14.00;68.80;;;;;;5113622;28;20047;-75
2022/05/08 12:14:20;;;;;;;7.97;2.25;;;14.00;68.30;;;;;;5112495;28;20043;-74
2022/05/08 12:16:58;;;;;;;9.15;2.17;;;14.00;67.70;;;;;;5095019;28;20491;-76
2022/05/08 12:19:24;;;;;;;10.63;2.67;;;14.00;65.30;;;;;;5113385;28;20047;-75
2022/05/08 12:21:49;;;;;;;8.40;2.15;;;14.00;66.90;;;;;;5112905;28;20100;-75
2022/05/08 12:24:19;;;;;;;7.70;2.00;;;14.10;68.20;;;;;;5095469;28;20452;-76
2022/05/08 12:26:45;;;;;;;6.93;2.15;;;14.20;67.00;;;;;;5111594;28;20047;-75
2022/05/08 12:29:15;;;;;;;8.98;1.88;;;14.20;63.80;;;;;;5112898;27;20502;-76
2022/05/08 12:31:41;;;;;;;8.90;2.30;;;14.20;61.00;;;;;;5115393;27;20384;-76
2022/05/08 12:34:10;;;;;;;7.75;1.90;;;14.20;62.70;;;;;;5115676;27;20039;-76
2022/05/08 12:36:36;;;;;;;8.88;1.73;;;14.20;60.90;;;;;;5133187;27;20039;-76
2022/05/08 12:39:02;;;;;;;5.43;1.80;;;14.30;60.50;;;;;;5133521;27;20039;-76
2022/05/08 12:41:27;;;;;;;12.45;2.33;;;14.30;61.00;;;;;;5115160;27;20050;-76
2022/05/08 12:43:54;;;;;;;11.20;2.22;;;14.30;62.10;;;;;;5115112;28;20509;-76
2022/05/08 12:46:19;;;;;;;8.50;2.50;;;14.30;62.30;;;;;;5133648;27;20131;-76
2022/05/08 12:48:45;;;;;;;8.57;2.10;;;14.40;62.40;;;;;;5081413;28;20518;-76
2022/05/08 12:51:10;;;;;;;9.35;1.95;;;14.40;62.60;;;;;;5133585;28;20043;-75
2022/05/08 12:53:36;;;;;;;8.10;1.80;;;14.50;61.10;;;;;;5133118;28;20039;-76
2022/05/08 12:56:02;;;;;;;7.32;2.00;;;14.50;60.80;;;;;;5115375;28;20051;-76
2022/05/08 13:01:12;;;;;;;8.38;2.33;;;14.50;62.30;;;;;;5117737;28;20502;-76
2022/05/08 13:03:37;;;;;;;6.95;1.80;;;14.60;62.50;;;;;;5132815;28;20043;-77
2022/05/08 13:06:03;;;;;;;10.32;2.15;;;14.70;61.90;;;;;;5133327;28;20046;-80
2022/05/08 13:08:29;;;;;;;10.13;2.20;;;14.70;61.20;;;;;;5115070;28;20433;-77
2022/05/08 13:10:55;;;;;;;8.70;2.15;;;14.70;61.10;;;;;;5132839;28;20092;-76
2022/05/08 13:13:20;;;;;;;9.73;1.92;;;14.60;60.70;;;;;;5115054;28;20091;-77
2022/05/08 13:15:46;;;;;;;6.80;1.92;;;14.60;60.60;;;;;;5100260;27;20043;-76
2022/05/08 13:18:12;;;;;;;7.10;2.03;;;14.60;60.60;;;;;;5119228;27;20047;-76
2022/05/08 13:20:38;;;;;;;6.97;1.80;;;14.60;59.80;;;;;;5136749;27;20047;-77